Time;durP1;ratioP1;P1;durP2;ratioP2;P2;SDS_P1;SDS_P2;PMS_P1;PMS_P2;Temp;Humidity;BMP_temperature;BMP_pressure;BME280_temperature;BME280_humidity;BME280_pressure;Samples;Min_cycle;Max_cycle;Signal;HPM_P1;HPM_P2
2022/11/28 00:02:25;;;;;;;15.83;10.53;;;;;;;5.25;100.00;101531.78;5066740;28;20227;-61
2022/11/28 00:04:53;;;;;;;14.83;10.07;;;;;;;5.34;100.00;101533.81;5063604;28;20254;-61
2022/11/28 00:07:20;;;;;;;15.67;9.73;;;;;;;5.45;100.00;101532.44;5058956;28;20314;-61
2022/11/28 00:09:47;;;;;;;15.63;9.60;;;;;;;5.44;100.00;101533.25;5063818;28;20997;-62
2022/11/28 00:12:14;;;;;;;12.33;9.50;;;;;;;5.61;100.00;101516.44;5070073;28;20687;-60
2022/11/28 00:14:41;;;;;;;16.23;9.73;;;;;;;5.63;100.00;101519.13;5090169;28;20249;-61
2022/11/28 00:17:08;;;;;;;14.37;10.03;;;;;;;5.24;100.00;101519.59;5081910;28;20237;-61
2022/11/28 00:19:35;;;;;;;13.83;10.30;;;;;;;5.22;100.00;101519.53;5082399;28;20234;-60
2022/11/28 00:22:03;;;;;;;11.20;9.63;;;;;;;5.22;100.00;101519.53;5082104;28;20226;-61
2022/11/28 00:24:30;;;;;;;14.90;10.13;;;;;;;5.18;100.00;101515.06;5079732;28;20258;-62
2022/11/28 00:26:57;;;;;;;19.23;10.47;;;;;;;5.20;100.00;101521.22;5076357;28;20317;-61
2022/11/28 00:29:24;;;;;;;14.60;9.53;;;;;;;5.12;100.00;101509.63;5096519;28;20774;-60
2022/11/28 00:31:51;;;;;;;14.73;10.03;;;;;;;5.18;100.00;101507.25;5070692;28;20315;-62
2022/11/28 00:34:18;;;;;;;16.30;10.43;;;;;;;5.14;100.00;101507.09;5066153;28;20230;-62
2022/11/28 00:36:47;;;;;;;13.90;9.47;;;;;;;5.05;100.00;101505.06;5056481;28;20263;-66
2022/11/28 00:39:16;;;;;;;13.07;9.40;;;;;;;5.20;100.00;101503.00;5061862;28;20250;-61
2022/11/28 00:41:44;;;;;;;13.47;9.53;;;;;;;5.14;100.00;101501.91;5059263;28;20265;-61
2022/11/28 00:44:11;;;;;;;14.77;11.27;;;;;;;5.02;100.00;101503.25;5060902;28;20235;-61
2022/11/28 00:46:39;;;;;;;14.67;10.87;;;;;;;5.37;100.00;101500.03;5061093;28;20228;-61
2022/11/28 00:49:06;;;;;;;12.73;10.10;;;;;;;5.33;100.00;101508.59;5062640;28;20227;-61
2022/11/28 00:51:34;;;;;;;12.10;9.90;;;;;;;5.70;100.00;101485.50;5062432;28;20245;-60
2022/11/28 00:54:03;;;;;;;14.10;9.73;;;;;;;5.49;100.00;101498.72;5071108;28;20227;-61
2022/11/28 00:56:34;;;;;;;15.33;11.50;;;;;;;5.41;100.00;101494.13;5072983;28;20295;-60
2022/11/28 00:59:02;;;;;;;14.13;9.93;;;;;;;5.36;100.00;101487.84;5062920;28;20289;-61
2022/11/28 01:01:31;;;;;;;11.00;9.37;;;;;;;5.24;100.00;101494.44;5064449;28;20231;-61
2022/11/28 01:03:59;;;;;;;13.77;10.47;;;;;;;5.14;100.00;101494.97;5058324;28;20503;-60
2022/11/28 01:06:28;;;;;;;14.07;10.40;;;;;;;5.13;100.00;101488.00;5065582;28;20235;-60
2022/11/28 01:08:55;;;;;;;14.07;10.13;;;;;;;5.10;100.00;101479.22;5064617;28;20309;-61
2022/11/28 01:11:23;;;;;;;14.70;10.47;;;;;;;5.06;100.00;101485.16;5057553;28;20676;-61
2022/11/28 01:13:54;;;;;;;14.20;10.40;;;;;;;5.30;100.00;101464.22;5067141;28;20227;-61
2022/11/28 01:16:21;;;;;;;11.63;10.40;;;;;;;5.38;100.00;101466.25;5078664;28;20242;-61
2022/11/28 01:18:48;;;;;;;13.87;11.20;;;;;;;5.21;100.00;101462.22;5078572;28;20730;-61
2022/11/28 01:21:15;;;;;;;17.07;11.77;;;;;;;4.99;100.00;101464.13;5094372;28;20306;-61
2022/11/28 01:23:43;;;;;;;16.47;11.93;;;;;;;5.10;100.00;101461.88;5090094;27;20688;-61
2022/11/28 01:26:12;;;;;;;15.33;11.60;;;;;;;4.96;100.00;101461.41;5082112;28;20235;-60
2022/11/28 01:28:39;;;;;;;13.93;11.63;;;;;;;5.13;100.00;101454.16;5074689;28;20230;-61
2022/11/28 01:31:08;;;;;;;13.70;11.30;;;;;;;5.18;100.00;101451.69;5076265;28;20238;-61
2022/11/28 01:33:35;;;;;;;16.20;11.97;;;;;;;5.00;100.00;101455.47;5086285;28;20599;-61
2022/11/28 01:36:03;;;;;;;16.13;11.90;;;;;;;4.97;100.00;101455.38;5083838;28;20842;-62
2022/11/28 01:38:30;;;;;;;24.13;13.23;;;;;;;5.18;100.00;101446.50;5081912;28;20234;-61
2022/11/28 01:40:57;;;;;;;14.47;12.30;;;;;;;5.09;100.00;101447.09;5086641;28;20304;-60
2022/11/28 01:43:24;;;;;;;13.87;11.23;;;;;;;5.01;100.00;101428.59;5085987;28;20246;-60
2022/11/28 01:45:52;;;;;;;14.83;12.43;;;;;;;5.03;100.00;101439.09;5084722;28;20238;-61
2022/11/28 01:48:23;;;;;;;18.47;11.87;;;;;;;5.11;100.00;101432.41;5086248;28;20234;-61
2022/11/28 01:50:53;;;;;;;15.00;11.77;;;;;;;5.00;100.00;101438.97;5084138;28;20766;-60
2022/11/28 01:53:20;;;;;;;16.17;12.50;;;;;;;5.01;100.00;101427.72;5086120;28;20226;-61
2022/11/28 01:55:50;;;;;;;14.73;11.47;;;;;;;5.22;100.00;101425.81;5085153;28;20680;-61
2022/11/28 01:58:17;;;;;;;12.47;10.77;;;;;;;5.19;100.00;101430.03;5085198;28;20235;-61
2022/11/28 02:00:44;;;;;;;15.93;11.57;;;;;;;5.01;100.00;101423.41;5082355;28;20490;-62
2022/11/28 02:03:14;;;;;;;18.60;12.63;;;;;;;5.13;100.00;101422.94;5084901;28;20238;-60
2022/11/28 02:05:43;;;;;;;14.50;11.37;;;;;;;5.03;100.00;101420.88;5084152;28;21115;-61
2022/11/28 02:08:10;;;;;;;17.00;12.73;;;;;;;4.85;100.00;101425.47;5084725;28;20237;-62
2022/11/28 02:10:48;;;;;;;15.93;11.97;;;;;;;5.03;100.00;101415.66;5085151;28;20901;-60
2022/11/28 02:13:29;;;;;;;16.90;12.37;;;;;;;4.96;100.00;101404.16;5083079;28;20357;-61
2022/11/28 02:16:09;;;;;;;13.87;10.57;;;;;;;4.97;100.00;101407.66;5098553;28;20539;-61
2022/11/28 02:18:51;;;;;;;17.00;13.17;;;;;;;4.98;100.00;101396.41;5084055;28;20226;-61
2022/11/28 02:21:28;;;;;;;17.77;12.27;;;;;;;4.98;100.00;101397.31;5070981;28;20226;-61
2022/11/28 02:24:18;;;;;;;15.97;11.73;;;;;;;4.88;100.00;101402.13;5064560;28;20241;-61
2022/11/28 02:26:57;;;;;;;14.40;11.57;;;;;;;4.83;100.00;101391.59;5062379;28;20230;-61
2022/11/28 02:29:47;;;;;;;12.93;10.97;;;;;;;4.93;100.00;101392.78;5084839;28;20289;-61
2022/11/28 02:32:25;;;;;;;12.43;11.03;;;;;;;5.06;100.00;101391.47;5085173;28;20231;-61
2022/11/28 02:34:56;;;;;;;17.13;12.27;;;;;;;5.18;100.00;101395.31;5057743;28;20738;-62
2022/11/28 02:37:28;;;;;;;14.80;11.30;;;;;;;5.24;100.00;101398.13;5060158;28;20235;-62
2022/11/28 02:40:03;;;;;;;18.00;11.53;;;;;;;4.78;100.00;101393.16;5062070;28;20788;-62
2022/11/28 02:42:37;;;;;;;13.07;11.43;;;;;;;4.88;100.00;101382.22;5061002;28;20909;-60
2022/11/28 02:45:09;;;;;;;15.20;11.73;;;;;;;4.64;100.00;101384.91;5064325;28;20219;-62
2022/11/28 02:47:38;;;;;;;13.73;10.80;;;;;;;4.84;100.00;101382.06;5063140;28;20235;-61
2022/11/28 02:50:08;;;;;;;17.40;11.07;;;;;;;4.85;100.00;101383.84;5063780;28;20237;-61
2022/11/28 02:52:38;;;;;;;13.00;10.67;;;;;;;4.92;100.00;101376.28;5063768;28;20231;-61
2022/11/28 02:55:06;;;;;;;15.67;10.13;;;;;;;4.86;100.00;101376.06;5060179;28;20909;-60
2022/11/28 02:57:37;;;;;;;14.57;10.93;;;;;;;5.05;100.00;101374.94;5058973;28;20227;-62
2022/11/28 03:00:27;;;;;;;16.40;10.53;;;;;;;4.94;100.00;101368.50;5064238;28;20231;-61
2022/11/28 03:03:15;;;;;;;13.47;10.27;;;;;;;5.07;100.00;101369.81;5072178;28;20227;-61
2022/11/28 03:05:46;;;;;;;13.57;11.17;;;;;;;5.06;100.00;101363.72;5072986;28;20296;-61
2022/11/28 03:08:25;;;;;;;13.50;10.37;;;;;;;4.96;100.00;101361.66;5078381;28;20239;-62
2022/11/28 03:10:56;;;;;;;15.77;10.17;;;;;;;4.81;100.00;101351.66;5083416;28;20234;-61
2022/11/28 03:13:27;;;;;;;12.63;10.13;;;;;;;4.67;100.00;101351.19;5090945;28;20232;-62
2022/11/28 03:16:01;;;;;;;13.33;10.43;;;;;;;4.61;100.00;101339.72;5102367;28;20238;-62
2022/11/28 03:18:34;;;;;;;13.97;11.17;;;;;;;4.57;100.00;101348.25;5085723;28;20227;-61
2022/11/28 03:21:07;;;;;;;14.43;11.40;;;;;;;4.89;100.00;101341.47;5076585;28;20226;-61
2022/11/28 03:23:38;;;;;;;14.47;10.73;;;;;;;4.84;100.00;101335.22;5084839;28;20306;-61
2022/11/28 03:26:08;;;;;;;14.03;10.07;;;;;;;4.71;100.00;101345.25;5077498;28;20231;-63
2022/11/28 03:28:37;;;;;;;15.73;10.90;;;;;;;4.84;100.00;101343.03;5085771;28;20234;-61
2022/11/28 03:31:07;;;;;;;12.90;11.43;;;;;;;4.89;100.00;101344.09;5083558;28;20230;-61
2022/11/28 03:33:37;;;;;;;12.63;10.00;;;;;;;4.89;100.00;101338.88;5084219;28;20306;-61
2022/11/28 03:36:07;;;;;;;14.23;9.87;;;;;;;4.79;100.00;101338.56;5083647;28;20283;-63
2022/11/28 03:38:36;;;;;;;15.50;10.40;;;;;;;4.83;100.00;101336.06;5083297;28;20319;-61
2022/11/28 03:41:07;;;;;;;13.70;11.07;;;;;;;4.64;100.00;101330.28;5083337;28;20226;-61
2022/11/28 03:43:38;;;;;;;13.83;10.97;;;;;;;4.97;100.00;101326.97;5082533;28;20233;-61
2022/11/28 03:46:08;;;;;;;15.07;10.90;;;;;;;4.84;100.00;101327.44;5083340;28;20280;-61
2022/11/28 03:48:40;;;;;;;13.73;10.63;;;;;;;4.72;100.00;101334.00;5083795;28;20338;-60
2022/11/28 03:51:10;;;;;;;13.87;11.30;;;;;;;4.73;100.00;101321.88;5084554;28;20279;-64
2022/11/28 03:53:42;;;;;;;12.80;9.83;;;;;;;4.78;100.00;101325.53;5075129;28;20226;-61
2022/11/28 03:56:13;;;;;;;15.30;11.47;;;;;;;4.48;100.00;101328.00;5084064;28;20224;-61
2022/11/28 03:58:44;;;;;;;19.03;10.97;;;;;;;4.70;100.00;101321.78;5083294;28;20941;-61
2022/11/28 04:01:17;;;;;;;15.23;11.70;;;;;;;4.62;100.00;101318.94;5083348;28;20226;-61
2022/11/28 04:03:52;;;;;;;16.97;11.13;;;;;;;4.65;100.00;101329.44;5082783;28;20234;-61
2022/11/28 04:06:23;;;;;;;15.40;13.10;;;;;;;4.70;100.00;101329.59;5082881;28;20226;-61
2022/11/28 04:08:53;;;;;;;15.07;11.93;;;;;;;4.81;100.00;101322.13;5076382;28;20711;-61
2022/11/28 04:11:21;;;;;;;15.50;11.53;;;;;;;4.38;100.00;101310.31;5088256;28;20952;-61
2022/11/28 04:13:51;;;;;;;15.17;11.30;;;;;;;4.37;100.00;101311.16;5082947;28;20227;-61
2022/11/28 04:16:21;;;;;;;14.53;10.60;;;;;;;4.55;100.00;101316.97;5066262;28;20234;-62
2022/11/28 04:18:54;;;;;;;13.17;10.73;;;;;;;4.68;100.00;101319.16;5079338;28;20569;-62
2022/11/28 04:21:25;;;;;;;15.27;11.83;;;;;;;4.51;100.00;101310.78;5082260;28;20704;-61
2022/11/28 04:23:53;;;;;;;16.63;11.30;;;;;;;4.55;100.00;101316.97;5081744;28;20337;-62
2022/11/28 04:26:24;;;;;;;13.83;10.40;;;;;;;4.52;100.00;101311.66;5082653;28;20236;-60
2022/11/28 04:28:52;;;;;;;14.27;11.30;;;;;;;4.55;100.00;101311.78;5081037;28;20249;-60
2022/11/28 04:31:21;;;;;;;14.97;11.47;;;;;;;4.59;100.00;101307.56;5082573;28;20230;-59
2022/11/28 04:33:50;;;;;;;15.33;10.37;;;;;;;4.44;100.00;101303.63;5082478;28;20220;-60
2022/11/28 04:36:19;;;;;;;15.23;11.17;;;;;;;4.48;100.00;101299.41;5081593;28;20264;-60
2022/11/28 04:38:54;;;;;;;15.40;11.40;;;;;;;5.04;100.00;101300.31;5082663;28;20723;-60
2022/11/28 04:41:24;;;;;;;17.00;12.20;;;;;;;4.97;100.00;101298.38;5086780;28;20321;-61
2022/11/28 04:43:56;;;;;;;17.33;11.20;;;;;;;4.67;100.00;101286.19;5073734;28;20231;-61
2022/11/28 04:46:25;;;;;;;16.70;10.70;;;;;;;4.70;100.00;101291.47;5064777;28;20330;-61
2022/11/28 04:48:54;;;;;;;17.37;11.57;;;;;;;4.59;100.00;101292.81;5072406;28;20374;-61
2022/11/28 04:51:24;;;;;;;15.70;12.10;;;;;;;4.48;100.00;101289.00;5063369;28;20238;-60
2022/11/28 04:53:56;;;;;;;15.17;12.53;;;;;;;4.59;100.00;101282.44;5076873;28;20756;-62
2022/11/28 04:56:28;;;;;;;17.40;11.90;;;;;;;4.66;100.00;101289.59;5078312;28;20690;-61
2022/11/28 04:58:55;;;;;;;17.10;12.20;;;;;;;4.45;100.00;101288.91;5085227;28;20223;-60
2022/11/28 05:01:25;;;;;;;13.90;9.93;;;;;;;4.52;100.00;101290.88;5085814;28;20676;-62
2022/11/28 05:03:54;;;;;;;14.93;10.80;;;;;;;4.63;100.00;101289.47;5088592;28;20296;-61
2022/11/28 05:06:26;;;;;;;16.23;11.47;;;;;;;4.52;100.00;101296.06;5100251;27;20233;-62
2022/11/28 05:08:53;;;;;;;16.47;11.67;;;;;;;4.39;100.00;101289.59;5084914;28;20955;-61
2022/11/28 05:11:21;;;;;;;16.33;12.00;;;;;;;4.53;100.00;101292.66;5079709;28;20932;-61
2022/11/28 05:13:48;;;;;;;15.77;11.73;;;;;;;4.84;100.00;101298.81;5083788;28;20227;-60
2022/11/28 05:16:16;;;;;;;14.07;9.93;;;;;;;4.52;100.00;101286.53;5091424;28;20240;-60
2022/11/28 05:18:43;;;;;;;15.37;11.00;;;;;;;4.74;100.00;101292.47;5083849;28;20235;-61
2022/11/28 05:21:13;;;;;;;17.77;12.03;;;;;;;4.64;100.00;101287.78;5085634;28;20272;-60
2022/11/28 05:23:42;;;;;;;15.10;11.37;;;;;;;4.70;100.00;101286.28;5083958;28;20250;-60
2022/11/28 05:26:10;;;;;;;15.10;11.13;;;;;;;4.60;100.00;101281.63;5084432;28;20226;-61
2022/11/28 05:28:37;;;;;;;13.90;11.30;;;;;;;4.54;100.00;101284.00;5087275;28;20257;-60
2022/11/28 05:31:04;;;;;;;19.90;11.47;;;;;;;4.74;100.00;101290.75;5083984;28;20313;-61
2022/11/28 05:33:33;;;;;;;15.70;11.27;;;;;;;4.62;100.00;101281.66;5085530;28;20231;-62
2022/11/28 05:36:03;;;;;;;15.67;11.23;;;;;;;4.94;100.00;101282.66;5077183;28;20644;-61
2022/11/28 05:38:32;;;;;;;17.17;11.13;;;;;;;4.94;100.00;101280.03;5084525;28;20550;-61
2022/11/28 05:40:59;;;;;;;15.97;12.17;;;;;;;4.63;100.00;101273.88;5084301;28;20219;-60
2022/11/28 05:43:26;;;;;;;16.67;11.33;;;;;;;4.66;100.00;101284.38;5084606;28;20788;-60
2022/11/28 05:45:54;;;;;;;18.37;11.73;;;;;;;4.68;100.00;101277.53;5081357;28;20318;-60
2022/11/28 05:48:22;;;;;;;21.17;11.83;;;;;;;4.83;100.00;101271.91;5085377;28;20241;-61
2022/11/28 05:50:49;;;;;;;13.87;10.77;;;;;;;4.90;100.00;101271.25;5084087;28;20239;-60
2022/11/28 05:53:17;;;;;;;16.47;10.97;;;;;;;4.90;100.00;101263.47;5084717;28;20234;-60
2022/11/28 05:55:46;;;;;;;17.27;11.87;;;;;;;4.88;100.00;101269.44;5084893;28;20230;-60
2022/11/28 05:58:13;;;;;;;16.47;10.50;;;;;;;4.75;100.00;101258.69;5082774;28;20317;-61
2022/11/28 06:00:40;;;;;;;17.27;10.77;;;;;;;4.59;100.00;101263.34;5091279;28;20232;-61
2022/11/28 06:03:07;;;;;;;16.37;11.77;;;;;;;4.61;100.00;101253.88;5090824;28;20241;-62
2022/11/28 06:05:34;;;;;;;17.70;12.47;;;;;;;4.59;100.00;101250.34;5084951;28;20227;-62
2022/11/28 06:08:01;;;;;;;17.70;11.57;;;;;;;4.71;100.00;101246.41;5072265;28;20236;-62
2022/11/28 06:10:28;;;;;;;14.67;10.63;;;;;;;4.82;100.00;101243.28;5073600;28;20223;-62
2022/11/28 06:12:56;;;;;;;15.23;11.13;;;;;;;4.72;100.00;101242.97;5082595;28;20608;-60
2022/11/28 06:15:23;;;;;;;17.17;12.30;;;;;;;4.85;100.00;101238.16;5090364;28;20230;-62
2022/11/28 06:17:50;;;;;;;17.47;12.90;;;;;;;4.56;100.00;101240.72;5085419;28;20238;-60
2022/11/28 06:20:17;;;;;;;16.47;11.53;;;;;;;4.55;100.00;101232.03;5083751;28;20265;-61
2022/11/28 06:22:46;;;;;;;16.27;11.57;;;;;;;4.60;100.00;101231.28;5083558;28;20241;-60
2022/11/28 06:25:13;;;;;;;19.17;12.73;;;;;;;4.51;100.00;101227.59;5083948;28;20242;-61
2022/11/28 06:27:40;;;;;;;15.77;11.63;;;;;;;4.67;100.00;101218.56;5084974;28;20280;-61
2022/11/28 06:30:09;;;;;;;16.10;12.23;;;;;;;4.74;100.00;101225.72;5084045;28;20230;-61
2022/11/28 06:32:36;;;;;;;15.40;12.07;;;;;;;4.87;100.00;101220.84;5084626;28;20226;-60
2022/11/28 06:35:03;;;;;;;17.27;12.57;;;;;;;4.97;100.00;101222.91;5090104;28;20233;-62
2022/11/28 06:37:30;;;;;;;16.47;12.53;;;;;;;4.76;100.00;101231.81;5090075;28;20230;-62
2022/11/28 06:39:59;;;;;;;23.40;12.77;;;;;;;4.61;100.00;101223.56;5086691;28;20310;-61
2022/11/28 06:42:26;;;;;;;18.37;11.60;;;;;;;4.54;100.00;101226.81;5083361;28;20230;-61
2022/11/28 06:44:53;;;;;;;15.63;10.93;;;;;;;4.42;100.00;101222.13;5084254;28;20226;-63
2022/11/28 06:47:21;;;;;;;18.37;13.60;;;;;;;4.36;100.00;101226.22;5084195;28;20334;-60
2022/11/28 06:49:48;;;;;;;19.00;12.70;;;;;;;4.42;100.00;101234.19;5082692;28;20643;-61
2022/11/28 06:52:15;;;;;;;19.40;13.07;;;;;;;4.50;100.00;101235.34;5083454;28;20231;-61
2022/11/28 06:54:42;;;;;;;19.00;13.83;;;;;;;4.38;100.00;101224.53;5083907;28;20236;-61
2022/11/28 06:57:09;;;;;;;22.43;13.67;;;;;;;4.42;100.00;101229.91;5087397;28;20286;-61
2022/11/28 06:59:36;;;;;;;16.07;12.20;;;;;;;4.31;100.00;101228.66;5096230;27;20286;-61
2022/11/28 07:02:02;;;;;;;17.93;12.67;;;;;;;4.55;100.00;101224.25;5088907;28;20587;-60
2022/11/28 07:04:31;;;;;;;20.37;12.87;;;;;;;4.28;100.00;101224.28;5060732;28;20243;-60
2022/11/28 07:06:57;;;;;;;20.47;14.00;;;;;;;4.17;100.00;101220.41;5065584;28;20648;-61
2022/11/28 07:09:24;;;;;;;17.37;13.30;;;;;;;4.56;100.00;101214.72;5084107;28;20418;-61
2022/11/28 07:11:51;;;;;;;22.63;14.63;;;;;;;4.47;100.00;101220.53;5083502;28;20589;-60
2022/11/28 07:14:18;;;;;;;19.30;13.47;;;;;;;4.47;100.00;101219.66;5088524;27;20272;-61
2022/11/28 07:16:46;;;;;;;22.67;13.43;;;;;;;4.31;100.00;101215.66;5084442;28;20241;-60
2022/11/28 07:19:12;;;;;;;21.77;13.23;;;;;;;4.41;100.00;101222.03;5083848;28;20409;-60
2022/11/28 07:21:41;;;;;;;19.87;13.17;;;;;;;4.60;100.00;101218.28;5082205;28;20230;-60
2022/11/28 07:24:08;;;;;;;20.67;13.90;;;;;;;4.37;100.00;101215.88;5081900;28;20225;-60
2022/11/28 07:26:36;;;;;;;16.93;12.83;;;;;;;4.31;100.00;101213.06;5083054;28;20321;-61
2022/11/28 07:29:06;;;;;;;19.17;13.93;;;;;;;4.42;100.00;101216.00;5081842;28;20229;-61
2022/11/28 07:31:33;;;;;;;20.07;12.07;;;;;;;4.37;100.00;101215.00;5081679;28;20323;-62
2022/11/28 07:34:02;;;;;;;22.33;13.70;;;;;;;4.37;100.00;101212.38;5084120;28;20222;-61
2022/11/28 07:36:30;;;;;;;22.97;13.60;;;;;;;4.37;100.00;101223.66;5082386;28;20700;-60
2022/11/28 07:39:00;;;;;;;22.67;14.30;;;;;;;4.17;100.00;101223.00;5076728;28;20738;-60
2022/11/28 07:41:27;;;;;;;21.10;13.53;;;;;;;4.10;100.00;101218.44;5083236;28;20237;-61
2022/11/28 07:43:56;;;;;;;20.50;13.40;;;;;;;4.16;100.00;101218.66;5083687;28;20256;-61
2022/11/28 07:46:24;;;;;;;18.03;13.87;;;;;;;4.05;100.00;101207.03;5083721;28;20271;-62
2022/11/28 07:48:51;;;;;;;19.93;13.13;;;;;;;4.07;100.00;101211.47;5076747;28;20246;-61
2022/11/28 07:51:20;;;;;;;19.90;13.50;;;;;;;4.25;100.00;101218.09;5073244;28;20730;-61
2022/11/28 07:53:47;;;;;;;19.10;13.50;;;;;;;4.36;100.00;101210.63;5071715;27;20620;-61
2022/11/28 07:56:18;;;;;;;19.20;13.20;;;;;;;4.63;100.00;101221.88;5082121;28;20293;-61
2022/11/28 07:58:47;;;;;;;21.57;13.50;;;;;;;4.43;100.00;101217.78;5083589;28;20719;-60
2022/11/28 08:01:15;;;;;;;16.60;13.67;;;;;;;4.59;100.00;101212.22;5072885;28;25147;-60
2022/11/28 08:03:43;;;;;;;20.27;13.67;;;;;;;4.61;100.00;101218.34;5068652;28;20675;-60
2022/11/28 08:06:11;;;;;;;19.20;13.27;;;;;;;4.64;100.00;101213.25;5068238;28;20783;-61
2022/11/28 08:08:38;;;;;;;18.93;13.17;;;;;;;4.64;100.00;101207.19;5082725;28;20364;-60
2022/11/28 08:11:07;;;;;;;20.77;14.23;;;;;;;4.78;100.00;101213.69;5083367;28;20222;-61
2022/11/28 08:13:36;;;;;;;20.30;13.27;;;;;;;4.71;100.00;101209.13;5082263;28;20231;-61
2022/11/28 08:16:05;;;;;;;19.30;13.97;;;;;;;4.81;100.00;101210.25;5088597;28;20227;-60
2022/11/28 08:18:32;;;;;;;20.17;13.67;;;;;;;4.76;100.00;101204.94;5083012;28;20245;-61
2022/11/28 08:21:04;;;;;;;18.23;13.50;;;;;;;4.67;100.00;101202.94;5077420;28;20233;-60
2022/11/28 08:23:30;;;;;;;23.80;14.17;;;;;;;4.65;100.00;101194.22;5073877;28;20223;-62
2022/11/28 08:26:00;;;;;;;19.90;13.80;;;;;;;4.72;100.00;101192.69;5079985;28;20229;-60
2022/11/28 08:28:27;;;;;;;17.77;14.10;;;;;;;4.57;100.00;101190.50;5076405;28;20617;-62
2022/11/28 08:30:55;;;;;;;19.33;13.97;;;;;;;4.51;100.00;101187.72;5080695;28;20311;-64
2022/11/28 08:33:22;;;;;;;19.47;14.43;;;;;;;4.59;100.00;101191.41;5080216;28;20413;-61
2022/11/28 08:35:49;;;;;;;19.67;13.83;;;;;;;4.53;100.00;101186.94;5081655;28;20324;-60
2022/11/28 08:38:16;;;;;;;23.07;14.27;;;;;;;4.72;100.00;101185.75;5078872;28;20250;-60
2022/11/28 08:40:43;;;;;;;17.67;13.43;;;;;;;4.97;100.00;101187.34;5062589;28;20231;-61
2022/11/28 08:43:10;;;;;;;19.30;14.10;;;;;;;4.69;100.00;101193.47;5069965;28;20257;-61
2022/11/28 08:45:37;;;;;;;19.50;13.40;;;;;;;4.71;100.00;101194.41;5084762;28;20249;-60
2022/11/28 08:48:06;;;;;;;22.80;14.57;;;;;;;4.73;100.00;101197.91;5073470;28;20319;-61
2022/11/28 08:50:33;;;;;;;18.97;13.83;;;;;;;4.94;100.00;101202.88;5075123;28;20784;-60
2022/11/28 08:52:59;;;;;;;21.07;13.67;;;;;;;4.97;100.00;101212.50;5078805;28;20230;-60
2022/11/28 08:55:26;;;;;;;18.77;14.13;;;;;;;4.94;100.00;101202.00;5071517;28;20284;-61
2022/11/28 08:57:53;;;;;;;19.00;13.53;;;;;;;4.92;100.00;101199.34;5077738;28;20251;-61
2022/11/28 09:00:21;;;;;;;22.40;14.47;;;;;;;4.91;100.00;101204.50;5078125;28;20230;-59
2022/11/28 09:02:48;;;;;;;22.17;14.70;;;;;;;4.83;100.00;101203.41;5079975;28;20226;-60
2022/11/28 09:05:16;;;;;;;22.57;14.27;;;;;;;4.78;100.00;101204.16;5082038;28;20237;-60
2022/11/28 09:07:43;;;;;;;22.90;13.57;;;;;;;4.91;100.00;101205.38;5081016;28;20672;-60
2022/11/28 09:10:10;;;;;;;24.20;14.53;;;;;;;4.90;100.00;101216.63;5080396;28;20230;-62
2022/11/28 09:12:38;;;;;;;21.87;15.20;;;;;;;4.56;100.00;101204.31;5073929;28;20239;-60
2022/11/28 09:15:05;;;;;;;16.77;12.77;;;;;;;4.72;100.00;101216.97;5081403;28;20337;-60
2022/11/28 09:17:32;;;;;;;21.73;14.03;;;;;;;4.85;100.00;101207.81;5070658;28;20650;-61
2022/11/28 09:19:59;;;;;;;20.57;13.80;;;;;;;4.77;100.00;101209.28;5081483;28;20234;-60
2022/11/28 09:22:28;;;;;;;22.93;14.07;;;;;;;4.86;100.00;101213.91;5080293;28;20644;-61
2022/11/28 09:24:55;;;;;;;19.80;14.07;;;;;;;4.83;100.00;101208.59;5081436;28;20366;-61
2022/11/28 09:27:22;;;;;;;21.43;12.97;;;;;;;4.94;100.00;101202.00;5085651;28;20632;-61
2022/11/28 09:29:49;;;;;;;20.50;13.97;;;;;;;4.97;100.00;101212.50;5074011;28;20246;-60
2022/11/28 09:32:15;;;;;;;20.80;13.73;;;;;;;4.89;100.00;101203.59;5078366;28;20898;-60
2022/11/28 09:34:42;;;;;;;20.00;13.50;;;;;;;4.78;100.00;101191.16;5080719;28;20230;-61
2022/11/28 09:37:09;;;;;;;19.40;13.93;;;;;;;4.90;100.00;101195.81;5070047;28;20274;-62
2022/11/28 09:39:38;;;;;;;21.47;13.60;;;;;;;4.96;100.00;101195.13;5084184;28;20530;-60
2022/11/28 09:42:10;;;;;;;23.07;13.77;;;;;;;5.00;100.00;101186.56;5076922;28;20258;-60
2022/11/28 09:44:43;;;;;;;21.83;14.17;;;;;;;4.95;100.00;101191.66;5084566;28;20227;-60
2022/11/28 09:47:15;;;;;;;19.50;13.60;;;;;;;5.12;100.00;101181.69;5093738;28;20309;-60
2022/11/28 09:49:46;;;;;;;20.80;13.47;;;;;;;5.03;100.00;101178.84;5066013;28;20238;-60
2022/11/28 09:52:25;;;;;;;20.73;14.17;;;;;;;4.72;100.00;101172.75;5064086;28;20706;-60
2022/11/28 09:55:00;;;;;;;19.00;12.87;;;;;;;4.94;100.00;101165.56;5048385;28;20231;-61
2022/11/28 09:57:32;;;;;;;24.43;14.77;;;;;;;5.16;100.00;101167.97;5059673;28;20295;-61
2022/11/28 09:59:59;;;;;;;21.07;13.37;;;;;;;5.07;100.00;101170.28;5071729;28;20231;-62
2022/11/28 10:02:29;;;;;;;19.33;13.73;;;;;;;5.03;100.00;101173.66;5073037;27;20298;-60
2022/11/28 10:05:04;;;;;;;24.70;15.13;;;;;;;5.26;100.00;101174.28;5082632;28;20608;-61
2022/11/28 10:07:41;;;;;;;18.87;12.87;;;;;;;5.31;100.00;101182.22;5068108;28;20238;-60
2022/11/28 10:10:17;;;;;;;20.53;14.37;;;;;;;5.32;100.00;101189.19;5063675;28;20242;-61
2022/11/28 10:12:50;;;;;;;19.43;13.67;;;;;;;5.39;100.00;101178.97;5063759;28;20648;-61
2022/11/28 10:15:29;;;;;;;17.67;13.47;;;;;;;5.29;100.00;101179.56;5063838;28;20651;-61
2022/11/28 10:18:05;;;;;;;21.87;14.87;;;;;;;4.97;100.00;101181.28;5068700;28;20238;-61
2022/11/28 10:20:33;;;;;;;20.67;13.73;;;;;;;5.05;100.00;101179.75;5065688;28;20246;-62
2022/11/28 10:23:03;;;;;;;23.87;13.70;;;;;;;5.01;100.00;101183.13;5071297;28;20943;-61
2022/11/28 10:25:35;;;;;;;26.70;15.60;;;;;;;4.95;100.00;101175.13;5073454;28;20231;-61
2022/11/28 10:28:04;;;;;;;25.40;14.83;;;;;;;5.09;100.00;101184.25;5062393;28;20284;-62
2022/11/28 10:30:33;;;;;;;21.37;15.03;;;;;;;5.00;100.00;101182.25;5082800;28;20680;-61
2022/11/28 10:33:06;;;;;;;27.13;14.77;;;;;;;5.21;100.00;101168.06;5075635;28;20231;-61
2022/11/28 10:35:40;;;;;;;20.60;14.33;;;;;;;5.22;100.00;101173.31;5075685;28;20278;-61
2022/11/28 10:38:11;;;;;;;22.03;14.87;;;;;;;5.22;100.00;101162.03;5081638;28;20245;-61
2022/11/28 10:40:44;;;;;;;25.20;14.20;;;;;;;5.26;100.00;101162.16;5077792;28;20263;-61
2022/11/28 10:43:20;;;;;;;22.00;13.57;;;;;;;5.30;100.00;101163.13;5078318;28;20667;-61
2022/11/28 10:45:52;;;;;;;21.00;13.47;;;;;;;5.33;100.00;101144.09;5086270;28;20226;-60
2022/11/28 10:48:26;;;;;;;25.03;16.07;;;;;;;5.19;100.00;101152.41;5066415;28;20296;-60
2022/11/28 10:50:58;;;;;;;22.97;15.27;;;;;;;5.33;100.00;101152.78;5097658;28;20261;-62
2022/11/28 10:53:35;;;;;;;17.73;12.70;;;;;;;5.39;100.00;101146.88;5067900;28;20241;-64
2022/11/28 10:56:11;;;;;;;21.13;13.83;;;;;;;5.16;100.00;101152.34;5072649;28;20230;-62
2022/11/28 10:58:43;;;;;;;23.67;14.87;;;;;;;5.38;100.00;101147.72;5082652;28;20238;-61
2022/11/28 11:01:11;;;;;;;24.50;14.53;;;;;;;5.60;100.00;101155.22;5082546;28;20601;-61
2022/11/28 11:03:39;;;;;;;23.70;14.50;;;;;;;5.47;100.00;101143.59;5082047;28;20230;-61
2022/11/28 11:06:06;;;;;;;23.27;14.83;;;;;;;5.54;100.00;101148.97;5083503;28;20230;-61
2022/11/28 11:08:34;;;;;;;22.83;14.17;;;;;;;5.53;100.00;101134.22;5083789;28;20238;-61
2022/11/28 11:11:06;;;;;;;23.57;13.83;;;;;;;5.63;100.00;101142.28;5082119;28;20230;-61
2022/11/28 11:13:34;;;;;;;21.13;13.80;;;;;;;5.73;100.00;101139.09;5083231;28;20230;-61
2022/11/28 11:16:03;;;;;;;18.43;13.60;;;;;;;5.67;100.00;101141.53;5089795;28;20226;-61
2022/11/28 11:18:33;;;;;;;28.17;13.10;;;;;;;5.72;100.00;101139.94;5084248;28;20242;-61
2022/11/28 11:21:14;;;;;;;22.97;14.57;;;;;;;5.70;100.00;101130.31;5084492;28;20621;-59